FLKK

Kenneth Kaunda International Airport

Lusaka, Zambia
METAR FLKK 122000Z VRB02KT CAVOK 21/20 Q1021
Observed Flight Rules
Dec-12 @ 20:00 UTC (an hour ago) Visual Flight Rules
Wind Visibility Clouds
Variable at 2 knots 10,000+ meters
  • Clear skies
Temperatures Readings
Current 21°C / 70°F
Dewpoint 20°C / 68°F
Humidity 94%
Altimeter 30.15" Hg
Pressure 1021 hPa
Elevation 1154
METAR FLKK 122000Z VRB02KT CAVOK 21/20 Q1021
Observed Flight Rules
Dec-12 @ 20:00 UTC
(an hour ago)
VFR
Wind Visibility
Variable at 2 knots 10,000+ meters
Clouds
  • Clear skies
Temperature Dewpoint
21°C / 70°F 20°C / 68°F
Humidity Altimeter Pressure
94% 30.15" Hg 1021 hPa